sensor_id;sensor_type;location;lat;lon;timestamp;P1;durP1;ratioP1;P2;durP2;ratioP2
14472;SDS011;7322;50.872;4.386;2024-01-07T00:03:50;2.37;;;1.77;;
14472;SDS011;7322;50.872;4.386;2024-01-07T00:06:38;2.13;;;1.50;;
14472;SDS011;7322;50.872;4.386;2024-01-07T00:09:19;1.70;;;1.40;;
14472;SDS011;7322;50.872;4.386;2024-01-07T00:11:49;2.00;;;1.73;;
14472;SDS011;7322;50.872;4.386;2024-01-07T00:14:24;2.07;;;1.80;;
14472;SDS011;7322;50.872;4.386;2024-01-07T00:16:58;2.00;;;1.80;;
14472;SDS011;7322;50.872;4.386;2024-01-07T00:19:25;2.23;;;1.53;;
14472;SDS011;7322;50.872;4.386;2024-01-07T00:21:57;2.97;;;1.90;;
14472;SDS011;7322;50.872;4.386;2024-01-07T00:24:26;2.57;;;1.60;;
14472;SDS011;7322;50.872;4.386;2024-01-07T00:47:37;1.90;;;1.40;;
14472;SDS011;7322;50.872;4.386;2024-01-07T00:50:14;2.10;;;1.70;;
14472;SDS011;7322;50.872;4.386;2024-01-07T00:52:49;2.77;;;1.60;;
14472;SDS011;7322;50.872;4.386;2024-01-07T01:01:12;2.33;;;1.87;;
14472;SDS011;7322;50.872;4.386;2024-01-07T01:22:15;2.43;;;1.83;;
14472;SDS011;7322;50.872;4.386;2024-01-07T01:24:42;2.47;;;1.60;;
14472;SDS011;7322;50.872;4.386;2024-01-07T01:27:24;1.77;;;1.43;;
14472;SDS011;7322;50.872;4.386;2024-01-07T01:29:51;2.30;;;1.83;;
14472;SDS011;7322;50.872;4.386;2024-01-07T01:32:27;2.30;;;1.70;;
14472;SDS011;7322;50.872;4.386;2024-01-07T01:34:56;1.97;;;1.77;;
14472;SDS011;7322;50.872;4.386;2024-01-07T01:40:22;1.73;;;1.53;;
14472;SDS011;7322;50.872;4.386;2024-01-07T01:58:32;2.47;;;1.50;;
14472;SDS011;7322;50.872;4.386;2024-01-07T02:01:10;1.40;;;1.30;;
14472;SDS011;7322;50.872;4.386;2024-01-07T02:03:46;1.67;;;1.53;;
14472;SDS011;7322;50.872;4.386;2024-01-07T02:09:16;1.63;;;1.40;;
14472;SDS011;7322;50.872;4.386;2024-01-07T02:18:05;2.23;;;1.70;;
14472;SDS011;7322;50.872;4.386;2024-01-07T02:26:56;2.20;;;1.50;;
14472;SDS011;7322;50.872;4.386;2024-01-07T02:29:27;1.87;;;1.67;;
14472;SDS011;7322;50.872;4.386;2024-01-07T02:31:54;1.70;;;1.60;;
14472;SDS011;7322;50.872;4.386;2024-01-07T02:34:23;1.50;;;1.40;;
14472;SDS011;7322;50.872;4.386;2024-01-07T02:43:06;1.63;;;1.53;;
14472;SDS011;7322;50.872;4.386;2024-01-07T02:45:40;1.83;;;1.60;;
14472;SDS011;7322;50.872;4.386;2024-01-07T02:51:28;1.60;;;1.50;;
14472;SDS011;7322;50.872;4.386;2024-01-07T02:56:34;2.10;;;1.70;;
14472;SDS011;7322;50.872;4.386;2024-01-07T02:59:12;1.77;;;1.50;;
14472;SDS011;7322;50.872;4.386;2024-01-07T03:04:50;1.83;;;1.60;;
14472;SDS011;7322;50.872;4.386;2024-01-07T03:07:36;1.70;;;1.60;;
14472;SDS011;7322;50.872;4.386;2024-01-07T03:10:10;1.97;;;1.70;;
14472;SDS011;7322;50.872;4.386;2024-01-07T03:12:52;1.67;;;1.50;;
14472;SDS011;7322;50.872;4.386;2024-01-07T03:15:21;2.20;;;1.90;;
14472;SDS011;7322;50.872;4.386;2024-01-07T03:23:43;1.80;;;1.70;;
14472;SDS011;7322;50.872;4.386;2024-01-07T03:32:29;2.97;;;1.83;;
14472;SDS011;7322;50.872;4.386;2024-01-07T03:34:57;2.07;;;1.80;;
14472;SDS011;7322;50.872;4.386;2024-01-07T03:37:25;2.47;;;1.60;;
14472;SDS011;7322;50.872;4.386;2024-01-07T03:39:53;1.83;;;1.63;;
14472;SDS011;7322;50.872;4.386;2024-01-07T03:42:21;1.70;;;1.60;;
14472;SDS011;7322;50.872;4.386;2024-01-07T03:44:49;2.10;;;1.60;;
14472;SDS011;7322;50.872;4.386;2024-01-07T03:47:16;2.20;;;1.70;;
14472;SDS011;7322;50.872;4.386;2024-01-07T03:52:38;1.83;;;1.63;;
14472;SDS011;7322;50.872;4.386;2024-01-07T03:55:17;1.60;;;1.50;;
14472;SDS011;7322;50.872;4.386;2024-01-07T03:57:44;1.63;;;1.53;;
14472;SDS011;7322;50.872;4.386;2024-01-07T04:11:54;2.10;;;1.90;;
14472;SDS011;7322;50.872;4.386;2024-01-07T04:14:21;1.87;;;1.63;;
14472;SDS011;7322;50.872;4.386;2024-01-07T04:16:50;2.03;;;1.73;;
14472;SDS011;7322;50.872;4.386;2024-01-07T04:21:50;2.40;;;1.90;;
14472;SDS011;7322;50.872;4.386;2024-01-07T04:24:34;2.20;;;2.00;;
14472;SDS011;7322;50.872;4.386;2024-01-07T04:27:07;1.90;;;1.80;;
14472;SDS011;7322;50.872;4.386;2024-01-07T04:33:11;2.10;;;1.90;;
14472;SDS011;7322;50.872;4.386;2024-01-07T04:38:11;1.80;;;1.70;;
14472;SDS011;7322;50.872;4.386;2024-01-07T04:43:43;2.30;;;2.00;;
14472;SDS011;7322;50.872;4.386;2024-01-07T05:01:06;2.40;;;2.20;;
14472;SDS011;7322;50.872;4.386;2024-01-07T05:03:47;2.50;;;2.10;;
14472;SDS011;7322;50.872;4.386;2024-01-07T05:06:16;2.20;;;2.00;;
14472;SDS011;7322;50.872;4.386;2024-01-07T05:18:49;2.90;;;2.50;;
14472;SDS011;7322;50.872;4.386;2024-01-07T05:24:07;2.43;;;2.20;;
14472;SDS011;7322;50.872;4.386;2024-01-07T05:32:38;3.50;;;2.87;;
14472;SDS011;7322;50.872;4.386;2024-01-07T05:35:22;2.63;;;2.30;;
14472;SDS011;7322;50.872;4.386;2024-01-07T05:38:02;2.40;;;2.20;;
14472;SDS011;7322;50.872;4.386;2024-01-07T05:40:47;2.50;;;2.30;;
14472;SDS011;7322;50.872;4.386;2024-01-07T05:46:39;2.80;;;2.60;;
14472;SDS011;7322;50.872;4.386;2024-01-07T05:52:47;2.43;;;2.23;;
14472;SDS011;7322;50.872;4.386;2024-01-07T05:55:24;3.10;;;2.80;;
14472;SDS011;7322;50.872;4.386;2024-01-07T05:57:51;2.60;;;2.40;;
14472;SDS011;7322;50.872;4.386;2024-01-07T06:00:26;3.20;;;2.90;;
14472;SDS011;7322;50.872;4.386;2024-01-07T06:02:53;3.13;;;2.60;;
14472;SDS011;7322;50.872;4.386;2024-01-07T06:05:24;2.90;;;2.57;;
14472;SDS011;7322;50.872;4.386;2024-01-07T06:07:52;3.10;;;2.80;;
14472;SDS011;7322;50.872;4.386;2024-01-07T06:10:20;3.10;;;2.80;;
14472;SDS011;7322;50.872;4.386;2024-01-07T06:13:03;2.83;;;2.60;;
14472;SDS011;7322;50.872;4.386;2024-01-07T06:15:31;3.13;;;2.83;;
14472;SDS011;7322;50.872;4.386;2024-01-07T06:18:12;3.00;;;2.70;;
14472;SDS011;7322;50.872;4.386;2024-01-07T06:23:47;3.07;;;2.77;;
14472;SDS011;7322;50.872;4.386;2024-01-07T06:28:55;2.93;;;2.63;;
14472;SDS011;7322;50.872;4.386;2024-01-07T06:34:32;3.30;;;2.87;;
14472;SDS011;7322;50.872;4.386;2024-01-07T06:37:13;3.00;;;2.70;;
14472;SDS011;7322;50.872;4.386;2024-01-07T06:43:10;4.23;;;2.83;;
14472;SDS011;7322;50.872;4.386;2024-01-07T06:48:24;3.10;;;2.80;;
14472;SDS011;7322;50.872;4.386;2024-01-07T06:51:01;2.90;;;2.70;;
14472;SDS011;7322;50.872;4.386;2024-01-07T06:56:34;2.87;;;2.40;;
14472;SDS011;7322;50.872;4.386;2024-01-07T07:01:56;2.80;;;2.60;;
14472;SDS011;7322;50.872;4.386;2024-01-07T07:09:46;2.60;;;2.30;;
14472;SDS011;7322;50.872;4.386;2024-01-07T07:12:24;2.60;;;2.40;;
14472;SDS011;7322;50.872;4.386;2024-01-07T07:14:58;2.40;;;2.20;;
14472;SDS011;7322;50.872;4.386;2024-01-07T07:20:11;2.67;;;2.30;;
14472;SDS011;7322;50.872;4.386;2024-01-07T07:22:47;2.57;;;2.37;;
14472;SDS011;7322;50.872;4.386;2024-01-07T07:25:30;2.40;;;2.20;;
14472;SDS011;7322;50.872;4.386;2024-01-07T07:27:57;2.40;;;2.20;;
14472;SDS011;7322;50.872;4.386;2024-01-07T07:30:26;2.67;;;2.37;;
14472;SDS011;7322;50.872;4.386;2024-01-07T07:35:42;1.97;;;1.77;;
14472;SDS011;7322;50.872;4.386;2024-01-07T07:38:11;2.70;;;2.10;;
14472;SDS011;7322;50.872;4.386;2024-01-07T07:44:06;2.73;;;2.40;;
14472;SDS011;7322;50.872;4.386;2024-01-07T07:49:41;3.17;;;2.57;;
14472;SDS011;7322;50.872;4.386;2024-01-07T07:52:08;2.57;;;2.30;;
14472;SDS011;7322;50.872;4.386;2024-01-07T07:54:49;3.23;;;2.53;;
14472;SDS011;7322;50.872;4.386;2024-01-07T07:57:30;2.93;;;2.60;;
14472;SDS011;7322;50.872;4.386;2024-01-07T08:06:04;3.63;;;2.63;;
14472;SDS011;7322;50.872;4.386;2024-01-07T08:11:42;2.80;;;2.60;;
14472;SDS011;7322;50.872;4.386;2024-01-07T08:23:05;3.33;;;2.43;;
14472;SDS011;7322;50.872;4.386;2024-01-07T08:25:34;2.60;;;2.40;;
14472;SDS011;7322;50.872;4.386;2024-01-07T08:36:43;3.07;;;2.77;;
14472;SDS011;7322;50.872;4.386;2024-01-07T08:48:57;2.87;;;2.57;;
14472;SDS011;7322;50.872;4.386;2024-01-07T08:51:31;3.30;;;3.00;;
14472;SDS011;7322;50.872;4.386;2024-01-07T08:54:47;3.03;;;2.70;;
14472;SDS011;7322;50.872;4.386;2024-01-07T09:00:49;2.90;;;2.57;;
14472;SDS011;7322;50.872;4.386;2024-01-07T09:09:23;2.77;;;2.47;;
14472;SDS011;7322;50.872;4.386;2024-01-07T09:12:33;3.57;;;2.80;;
14472;SDS011;7322;50.872;4.386;2024-01-07T09:15:07;4.40;;;3.03;;
14472;SDS011;7322;50.872;4.386;2024-01-07T09:17:42;2.97;;;2.67;;
14472;SDS011;7322;50.872;4.386;2024-01-07T09:23:45;3.10;;;2.80;;
14472;SDS011;7322;50.872;4.386;2024-01-07T09:36:51;2.53;;;2.33;;
14472;SDS011;7322;50.872;4.386;2024-01-07T09:46:10;2.93;;;2.67;;
14472;SDS011;7322;50.872;4.386;2024-01-07T09:48:47;3.73;;;2.87;;
14472;SDS011;7322;50.872;4.386;2024-01-07T09:51:27;3.47;;;2.80;;
14472;SDS011;7322;50.872;4.386;2024-01-07T09:57:00;3.90;;;3.03;;
14472;SDS011;7322;50.872;4.386;2024-01-07T09:59:30;3.27;;;2.93;;
14472;SDS011;7322;50.872;4.386;2024-01-07T10:02:01;3.90;;;2.70;;
14472;SDS011;7322;50.872;4.386;2024-01-07T10:04:41;3.20;;;2.90;;
14472;SDS011;7322;50.872;4.386;2024-01-07T10:15:40;3.80;;;2.80;;
14472;SDS011;7322;50.872;4.386;2024-01-07T10:21:26;3.30;;;3.00;;
14472;SDS011;7322;50.872;4.386;2024-01-07T10:24:11;3.20;;;2.90;;
14472;SDS011;7322;50.872;4.386;2024-01-07T10:26:52;3.00;;;2.70;;
14472;SDS011;7322;50.872;4.386;2024-01-07T10:29:41;3.30;;;3.00;;
14472;SDS011;7322;50.872;4.386;2024-01-07T10:32:17;3.50;;;3.20;;
14472;SDS011;7322;50.872;4.386;2024-01-07T10:34:51;3.33;;;3.00;;
14472;SDS011;7322;50.872;4.386;2024-01-07T10:37:25;3.27;;;2.83;;
14472;SDS011;7322;50.872;4.386;2024-01-07T10:40:05;3.20;;;2.90;;
14472;SDS011;7322;50.872;4.386;2024-01-07T10:42:45;3.10;;;2.80;;
14472;SDS011;7322;50.872;4.386;2024-01-07T10:45:44;3.50;;;2.90;;
14472;SDS011;7322;50.872;4.386;2024-01-07T10:48:19;3.73;;;2.90;;
14472;SDS011;7322;50.872;4.386;2024-01-07T10:51:04;3.23;;;2.90;;
14472;SDS011;7322;50.872;4.386;2024-01-07T10:53:42;3.70;;;3.13;;
14472;SDS011;7322;50.872;4.386;2024-01-07T10:59:16;3.73;;;3.33;;
14472;SDS011;7322;50.872;4.386;2024-01-07T11:01:52;3.27;;;2.70;;
14472;SDS011;7322;50.872;4.386;2024-01-07T11:04:30;3.20;;;2.90;;
14472;SDS011;7322;50.872;4.386;2024-01-07T11:07:13;3.27;;;2.67;;
14472;SDS011;7322;50.872;4.386;2024-01-07T11:09:56;3.20;;;2.90;;
14472;SDS011;7322;50.872;4.386;2024-01-07T11:12:42;3.60;;;3.10;;
14472;SDS011;7322;50.872;4.386;2024-01-07T11:18:09;13.93;;;4.47;;
14472;SDS011;7322;50.872;4.386;2024-01-07T11:20:45;9.90;;;4.87;;
14472;SDS011;7322;50.872;4.386;2024-01-07T11:23:28;6.43;;;4.20;;
14472;SDS011;7322;50.872;4.386;2024-01-07T11:26:01;8.43;;;4.90;;
14472;SDS011;7322;50.872;4.386;2024-01-07T11:31:42;7.53;;;4.67;;
14472;SDS011;7322;50.872;4.386;2024-01-07T11:34:12;7.33;;;5.10;;
14472;SDS011;7322;50.872;4.386;2024-01-07T11:37:04;8.97;;;5.10;;
14472;SDS011;7322;50.872;4.386;2024-01-07T11:39:51;7.53;;;5.00;;
14472;SDS011;7322;50.872;4.386;2024-01-07T11:42:28;9.17;;;5.37;;
14472;SDS011;7322;50.872;4.386;2024-01-07T11:53:40;6.80;;;4.50;;
14472;SDS011;7322;50.872;4.386;2024-01-07T11:59:08;7.03;;;4.40;;
14472;SDS011;7322;50.872;4.386;2024-01-07T12:01:41;7.43;;;4.80;;
14472;SDS011;7322;50.872;4.386;2024-01-07T12:04:08;6.90;;;4.57;;
14472;SDS011;7322;50.872;4.386;2024-01-07T12:06:38;8.17;;;4.80;;
14472;SDS011;7322;50.872;4.386;2024-01-07T12:09:06;5.93;;;4.90;;
14472;SDS011;7322;50.872;4.386;2024-01-07T12:11:34;6.50;;;4.43;;
14472;SDS011;7322;50.872;4.386;2024-01-07T12:14:02;6.43;;;4.60;;
14472;SDS011;7322;50.872;4.386;2024-01-07T12:16:30;5.63;;;4.63;;
14472;SDS011;7322;50.872;4.386;2024-01-07T12:18:57;5.33;;;4.60;;
14472;SDS011;7322;50.872;4.386;2024-01-07T12:21:25;7.17;;;4.60;;
14472;SDS011;7322;50.872;4.386;2024-01-07T12:23:56;5.77;;;4.40;;
14472;SDS011;7322;50.872;4.386;2024-01-07T12:26:30;5.13;;;4.40;;
14472;SDS011;7322;50.872;4.386;2024-01-07T12:29:02;6.90;;;4.83;;
14472;SDS011;7322;50.872;4.386;2024-01-07T12:31:38;6.73;;;4.30;;
14472;SDS011;7322;50.872;4.386;2024-01-07T12:34:15;5.00;;;4.50;;
14472;SDS011;7322;50.872;4.386;2024-01-07T12:36:50;5.93;;;4.27;;
14472;SDS011;7322;50.872;4.386;2024-01-07T12:39:24;6.40;;;4.53;;
14472;SDS011;7322;50.872;4.386;2024-01-07T12:41:52;7.07;;;4.47;;
14472;SDS011;7322;50.872;4.386;2024-01-07T12:44:27;5.60;;;4.57;;
14472;SDS011;7322;50.872;4.386;2024-01-07T12:47:00;7.63;;;4.53;;
14472;SDS011;7322;50.872;4.386;2024-01-07T12:49:32;7.40;;;4.37;;
14472;SDS011;7322;50.872;4.386;2024-01-07T12:54:33;5.63;;;4.37;;
14472;SDS011;7322;50.872;4.386;2024-01-07T12:57:07;7.13;;;4.20;;
14472;SDS011;7322;50.872;4.386;2024-01-07T12:59:36;7.50;;;4.50;;
14472;SDS011;7322;50.872;4.386;2024-01-07T13:02:05;7.00;;;4.23;;
14472;SDS011;7322;50.872;4.386;2024-01-07T13:04:36;6.23;;;4.60;;
14472;SDS011;7322;50.872;4.386;2024-01-07T13:07:04;6.27;;;4.43;;
14472;SDS011;7322;50.872;4.386;2024-01-07T13:12:24;5.77;;;4.47;;
14472;SDS011;7322;50.872;4.386;2024-01-07T13:14:57;6.73;;;4.70;;
14472;SDS011;7322;50.872;4.386;2024-01-07T13:25:33;8.00;;;4.60;;
14472;SDS011;7322;50.872;4.386;2024-01-07T13:31:12;7.17;;;4.50;;
14472;SDS011;7322;50.872;4.386;2024-01-07T13:33:40;6.80;;;4.73;;
14472;SDS011;7322;50.872;4.386;2024-01-07T13:38:46;8.33;;;5.03;;
14472;SDS011;7322;50.872;4.386;2024-01-07T13:41:31;6.07;;;4.90;;
14472;SDS011;7322;50.872;4.386;2024-01-07T13:44:00;6.97;;;4.57;;
14472;SDS011;7322;50.872;4.386;2024-01-07T13:46:36;5.80;;;4.73;;
14472;SDS011;7322;50.872;4.386;2024-01-07T13:49:12;5.33;;;4.70;;
14472;SDS011;7322;50.872;4.386;2024-01-07T13:54:42;6.30;;;4.63;;
14472;SDS011;7322;50.872;4.386;2024-01-07T14:00:12;8.33;;;5.23;;
14472;SDS011;7322;50.872;4.386;2024-01-07T14:02:43;8.07;;;5.33;;
14472;SDS011;7322;50.872;4.386;2024-01-07T14:05:19;7.57;;;5.50;;
14472;SDS011;7322;50.872;4.386;2024-01-07T14:07:52;8.23;;;5.63;;
14472;SDS011;7322;50.872;4.386;2024-01-07T14:13:07;7.50;;;5.23;;
14472;SDS011;7322;50.872;4.386;2024-01-07T14:15:46;9.33;;;6.10;;
14472;SDS011;7322;50.872;4.386;2024-01-07T14:18:14;8.60;;;5.93;;
14472;SDS011;7322;50.872;4.386;2024-01-07T14:20:42;8.90;;;5.80;;
14472;SDS011;7322;50.872;4.386;2024-01-07T14:23:10;9.63;;;6.60;;
14472;SDS011;7322;50.872;4.386;2024-01-07T14:25:38;10.67;;;6.50;;
14472;SDS011;7322;50.872;4.386;2024-01-07T14:28:08;8.53;;;5.63;;
14472;SDS011;7322;50.872;4.386;2024-01-07T14:30:51;9.27;;;5.87;;
14472;SDS011;7322;50.872;4.386;2024-01-07T14:33:26;7.60;;;5.57;;
14472;SDS011;7322;50.872;4.386;2024-01-07T14:36:07;9.73;;;5.57;;
14472;SDS011;7322;50.872;4.386;2024-01-07T14:38:43;9.13;;;5.73;;
14472;SDS011;7322;50.872;4.386;2024-01-07T14:44:02;7.40;;;5.40;;
14472;SDS011;7322;50.872;4.386;2024-01-07T14:46:33;6.47;;;5.23;;
14472;SDS011;7322;50.872;4.386;2024-01-07T14:51:57;9.57;;;5.07;;
14472;SDS011;7322;50.872;4.386;2024-01-07T14:54:40;6.77;;;4.83;;
14472;SDS011;7322;50.872;4.386;2024-01-07T15:00:14;7.33;;;5.17;;
14472;SDS011;7322;50.872;4.386;2024-01-07T15:06:24;7.00;;;5.17;;
14472;SDS011;7322;50.872;4.386;2024-01-07T15:08:52;7.53;;;5.23;;
14472;SDS011;7322;50.872;4.386;2024-01-07T15:14:29;6.43;;;5.60;;
14472;SDS011;7322;50.872;4.386;2024-01-07T15:20:30;7.13;;;5.37;;
14472;SDS011;7322;50.872;4.386;2024-01-07T15:23:03;6.87;;;5.23;;
14472;SDS011;7322;50.872;4.386;2024-01-07T15:28:54;6.23;;;5.20;;
14472;SDS011;7322;50.872;4.386;2024-01-07T15:31:23;7.10;;;4.73;;
14472;SDS011;7322;50.872;4.386;2024-01-07T15:33:54;6.97;;;5.23;;
14472;SDS011;7322;50.872;4.386;2024-01-07T15:36:32;6.13;;;4.97;;
14472;SDS011;7322;50.872;4.386;2024-01-07T15:41:33;5.73;;;4.60;;
14472;SDS011;7322;50.872;4.386;2024-01-07T15:44:02;6.30;;;4.87;;
14472;SDS011;7322;50.872;4.386;2024-01-07T15:55:18;5.77;;;4.47;;
14472;SDS011;7322;50.872;4.386;2024-01-07T15:57:46;6.50;;;4.70;;
14472;SDS011;7322;50.872;4.386;2024-01-07T16:00:25;5.53;;;4.70;;
14472;SDS011;7322;50.872;4.386;2024-01-07T16:08:48;5.70;;;4.60;;
14472;SDS011;7322;50.872;4.386;2024-01-07T16:11:18;5.33;;;4.70;;
14472;SDS011;7322;50.872;4.386;2024-01-07T16:14:04;5.33;;;4.40;;
14472;SDS011;7322;50.872;4.386;2024-01-07T16:16:42;4.40;;;4.00;;
14472;SDS011;7322;50.872;4.386;2024-01-07T16:19:10;6.53;;;4.27;;
14472;SDS011;7322;50.872;4.386;2024-01-07T16:21:48;5.37;;;4.47;;
14472;SDS011;7322;50.872;4.386;2024-01-07T16:24:32;6.97;;;4.90;;
14472;SDS011;7322;50.872;4.386;2024-01-07T16:35:51;5.17;;;4.23;;
14472;SDS011;7322;50.872;4.386;2024-01-07T16:40:56;4.50;;;4.10;;
14472;SDS011;7322;50.872;4.386;2024-01-07T16:43:37;4.50;;;4.10;;
14472;SDS011;7322;50.872;4.386;2024-01-07T16:49:08;5.30;;;4.27;;
14472;SDS011;7322;50.872;4.386;2024-01-07T16:51:42;5.53;;;4.10;;
14472;SDS011;7322;50.872;4.386;2024-01-07T16:54:21;4.20;;;3.77;;
14472;SDS011;7322;50.872;4.386;2024-01-07T16:57:05;4.40;;;4.00;;
14472;SDS011;7322;50.872;4.386;2024-01-07T16:59:49;5.10;;;3.57;;
14472;SDS011;7322;50.872;4.386;2024-01-07T17:05:03;4.80;;;3.60;;
14472;SDS011;7322;50.872;4.386;2024-01-07T17:10:30;4.20;;;3.67;;
14472;SDS011;7322;50.872;4.386;2024-01-07T17:13:05;3.53;;;3.20;;
14472;SDS011;7322;50.872;4.386;2024-01-07T17:15:41;3.60;;;3.30;;
14472;SDS011;7322;50.872;4.386;2024-01-07T17:18:24;4.17;;;3.20;;
14472;SDS011;7322;50.872;4.386;2024-01-07T17:23:54;3.87;;;3.40;;
14472;SDS011;7322;50.872;4.386;2024-01-07T17:26:27;3.77;;;3.40;;
14472;SDS011;7322;50.872;4.386;2024-01-07T17:28:56;3.23;;;2.93;;
14472;SDS011;7322;50.872;4.386;2024-01-07T17:31:28;3.50;;;3.20;;
14472;SDS011;7322;50.872;4.386;2024-01-07T17:33:59;4.40;;;3.10;;
14472;SDS011;7322;50.872;4.386;2024-01-07T17:36:28;3.60;;;3.20;;
14472;SDS011;7322;50.872;4.386;2024-01-07T17:38:59;4.17;;;3.10;;
14472;SDS011;7322;50.872;4.386;2024-01-07T17:41:26;3.53;;;3.20;;
14472;SDS011;7322;50.872;4.386;2024-01-07T17:43:54;3.77;;;2.90;;
14472;SDS011;7322;50.872;4.386;2024-01-07T17:46:21;3.40;;;3.00;;
14472;SDS011;7322;50.872;4.386;2024-01-07T17:48:51;5.30;;;3.23;;
14472;SDS011;7322;50.872;4.386;2024-01-07T17:51:22;4.87;;;3.07;;
14472;SDS011;7322;50.872;4.386;2024-01-07T17:53:51;2.70;;;2.50;;
14472;SDS011;7322;50.872;4.386;2024-01-07T17:56:21;3.60;;;2.77;;
14472;SDS011;7322;50.872;4.386;2024-01-07T17:58:55;3.27;;;2.60;;
14472;SDS011;7322;50.872;4.386;2024-01-07T18:01:22;4.03;;;2.60;;
14472;SDS011;7322;50.872;4.386;2024-01-07T18:03:50;4.17;;;2.83;;
14472;SDS011;7322;50.872;4.386;2024-01-07T18:06:26;2.97;;;2.50;;
14472;SDS011;7322;50.872;4.386;2024-01-07T18:08:59;4.33;;;2.67;;
14472;SDS011;7322;50.872;4.386;2024-01-07T18:14:54;3.43;;;2.50;;
14472;SDS011;7322;50.872;4.386;2024-01-07T18:23:27;3.40;;;2.30;;
14472;SDS011;7322;50.872;4.386;2024-01-07T18:25:54;4.37;;;2.60;;
14472;SDS011;7322;50.872;4.386;2024-01-07T18:34:10;4.33;;;2.90;;
14472;SDS011;7322;50.872;4.386;2024-01-07T18:36:42;3.87;;;2.70;;
14472;SDS011;7322;50.872;4.386;2024-01-07T18:53:52;4.80;;;2.90;;
14472;SDS011;7322;50.872;4.386;2024-01-07T18:56:24;2.57;;;2.23;;
14472;SDS011;7322;50.872;4.386;2024-01-07T18:58:57;3.97;;;2.70;;
14472;SDS011;7322;50.872;4.386;2024-01-07T19:01:25;4.60;;;2.50;;
14472;SDS011;7322;50.872;4.386;2024-01-07T19:03:52;3.70;;;2.30;;
14472;SDS011;7322;50.872;4.386;2024-01-07T19:11:55;5.27;;;2.50;;
14472;SDS011;7322;50.872;4.386;2024-01-07T19:14:23;3.33;;;2.13;;
14472;SDS011;7322;50.872;4.386;2024-01-07T19:25:10;3.23;;;2.10;;
14472;SDS011;7322;50.872;4.386;2024-01-07T19:30:40;4.33;;;2.37;;
14472;SDS011;7322;50.872;4.386;2024-01-07T19:36:02;5.87;;;2.67;;
14472;SDS011;7322;50.872;4.386;2024-01-07T19:38:36;3.03;;;1.80;;
14472;SDS011;7322;50.872;4.386;2024-01-07T19:43:52;2.87;;;2.10;;
14472;SDS011;7322;50.872;4.386;2024-01-07T19:46:22;3.67;;;2.07;;
14472;SDS011;7322;50.872;4.386;2024-01-07T19:48:49;10.20;;;2.17;;
14472;SDS011;7322;50.872;4.386;2024-01-07T19:51:18;5.63;;;2.00;;
14472;SDS011;7322;50.872;4.386;2024-01-07T19:53:46;4.70;;;2.17;;
14472;SDS011;7322;50.872;4.386;2024-01-07T19:56:14;5.80;;;2.40;;
14472;SDS011;7322;50.872;4.386;2024-01-07T19:58:41;3.77;;;1.90;;
14472;SDS011;7322;50.872;4.386;2024-01-07T20:01:10;5.00;;;2.30;;
14472;SDS011;7322;50.872;4.386;2024-01-07T20:03:39;5.30;;;1.87;;
14472;SDS011;7322;50.872;4.386;2024-01-07T20:06:07;4.57;;;2.20;;
14472;SDS011;7322;50.872;4.386;2024-01-07T20:08:40;6.17;;;2.07;;
14472;SDS011;7322;50.872;4.386;2024-01-07T20:11:15;3.83;;;1.90;;
14472;SDS011;7322;50.872;4.386;2024-01-07T20:13:43;3.47;;;2.00;;
14472;SDS011;7322;50.872;4.386;2024-01-07T20:16:13;4.33;;;2.23;;
14472;SDS011;7322;50.872;4.386;2024-01-07T20:18:41;3.33;;;2.50;;
14472;SDS011;7322;50.872;4.386;2024-01-07T20:21:17;5.13;;;2.30;;
14472;SDS011;7322;50.872;4.386;2024-01-07T20:23:45;4.67;;;2.20;;
14472;SDS011;7322;50.872;4.386;2024-01-07T20:26:12;3.37;;;1.70;;
14472;SDS011;7322;50.872;4.386;2024-01-07T20:28:39;3.13;;;1.97;;
14472;SDS011;7322;50.872;4.386;2024-01-07T20:31:07;4.90;;;1.80;;
14472;SDS011;7322;50.872;4.386;2024-01-07T20:33:37;4.40;;;2.00;;
14472;SDS011;7322;50.872;4.386;2024-01-07T20:36:04;3.17;;;1.90;;
14472;SDS011;7322;50.872;4.386;2024-01-07T20:38:33;4.07;;;2.03;;
14472;SDS011;7322;50.872;4.386;2024-01-07T20:41:01;2.67;;;1.90;;
14472;SDS011;7322;50.872;4.386;2024-01-07T20:43:28;3.33;;;2.03;;
14472;SDS011;7322;50.872;4.386;2024-01-07T20:45:55;4.17;;;1.90;;
14472;SDS011;7322;50.872;4.386;2024-01-07T20:48:22;4.27;;;1.97;;
14472;SDS011;7322;50.872;4.386;2024-01-07T20:50:50;3.43;;;2.00;;
14472;SDS011;7322;50.872;4.386;2024-01-07T20:53:18;3.83;;;2.00;;
14472;SDS011;7322;50.872;4.386;2024-01-07T20:55:47;3.97;;;2.00;;
14472;SDS011;7322;50.872;4.386;2024-01-07T20:58:15;5.27;;;1.83;;
14472;SDS011;7322;50.872;4.386;2024-01-07T21:00:42;2.80;;;1.60;;
14472;SDS011;7322;50.872;4.386;2024-01-07T21:03:11;4.40;;;1.90;;
14472;SDS011;7322;50.872;4.386;2024-01-07T21:05:39;3.33;;;1.70;;
14472;SDS011;7322;50.872;4.386;2024-01-07T21:08:08;3.30;;;1.80;;
14472;SDS011;7322;50.872;4.386;2024-01-07T21:10:38;3.00;;;1.97;;
14472;SDS011;7322;50.872;4.386;2024-01-07T21:13:06;2.20;;;1.90;;
14472;SDS011;7322;50.872;4.386;2024-01-07T21:15:35;3.97;;;1.77;;
14472;SDS011;7322;50.872;4.386;2024-01-07T21:18:04;2.67;;;1.87;;
14472;SDS011;7322;50.872;4.386;2024-01-07T21:20:32;4.10;;;1.93;;
14472;SDS011;7322;50.872;4.386;2024-01-07T21:23:00;2.73;;;1.87;;
14472;SDS011;7322;50.872;4.386;2024-01-07T21:25:29;2.73;;;1.87;;
14472;SDS011;7322;50.872;4.386;2024-01-07T21:27:59;2.53;;;1.70;;
14472;SDS011;7322;50.872;4.386;2024-01-07T21:30:29;2.57;;;1.90;;
14472;SDS011;7322;50.872;4.386;2024-01-07T21:32:56;3.07;;;1.60;;
14472;SDS011;7322;50.872;4.386;2024-01-07T21:35:25;2.47;;;1.80;;
14472;SDS011;7322;50.872;4.386;2024-01-07T21:37:52;3.13;;;1.77;;
14472;SDS011;7322;50.872;4.386;2024-01-07T21:40:19;3.60;;;1.90;;
14472;SDS011;7322;50.872;4.386;2024-01-07T21:42:48;2.50;;;1.90;;
14472;SDS011;7322;50.872;4.386;2024-01-07T21:45:15;2.27;;;1.80;;
14472;SDS011;7322;50.872;4.386;2024-01-07T21:47:43;2.30;;;1.60;;
14472;SDS011;7322;50.872;4.386;2024-01-07T21:50:13;3.73;;;1.90;;
14472;SDS011;7322;50.872;4.386;2024-01-07T21:52:41;2.37;;;1.77;;
14472;SDS011;7322;50.872;4.386;2024-01-07T21:55:19;3.23;;;1.80;;
14472;SDS011;7322;50.872;4.386;2024-01-07T21:57:49;2.37;;;1.67;;
14472;SDS011;7322;50.872;4.386;2024-01-07T22:00:16;3.63;;;1.70;;
14472;SDS011;7322;50.872;4.386;2024-01-07T22:02:44;2.03;;;1.63;;
14472;SDS011;7322;50.872;4.386;2024-01-07T22:05:14;4.03;;;2.00;;
14472;SDS011;7322;50.872;4.386;2024-01-07T22:07:42;1.93;;;1.57;;
14472;SDS011;7322;50.872;4.386;2024-01-07T22:10:10;2.40;;;1.63;;
14472;SDS011;7322;50.872;4.386;2024-01-07T22:12:39;2.60;;;1.80;;
14472;SDS011;7322;50.872;4.386;2024-01-07T22:15:08;3.50;;;1.70;;
14472;SDS011;7322;50.872;4.386;2024-01-07T22:17:36;2.57;;;1.80;;
14472;SDS011;7322;50.872;4.386;2024-01-07T22:20:03;2.57;;;1.73;;
14472;SDS011;7322;50.872;4.386;2024-01-07T22:22:30;2.77;;;1.80;;
14472;SDS011;7322;50.872;4.386;2024-01-07T22:24:58;2.60;;;1.70;;
14472;SDS011;7322;50.872;4.386;2024-01-07T22:27:25;2.10;;;1.80;;
14472;SDS011;7322;50.872;4.386;2024-01-07T22:29:52;1.90;;;1.60;;
14472;SDS011;7322;50.872;4.386;2024-01-07T22:32:20;3.33;;;1.77;;
14472;SDS011;7322;50.872;4.386;2024-01-07T22:34:47;2.20;;;1.70;;
14472;SDS011;7322;50.872;4.386;2024-01-07T22:37:14;2.20;;;1.47;;
14472;SDS011;7322;50.872;4.386;2024-01-07T22:39:41;1.63;;;1.47;;
14472;SDS011;7322;50.872;4.386;2024-01-07T22:42:08;2.70;;;1.80;;
14472;SDS011;7322;50.872;4.386;2024-01-07T22:44:35;2.50;;;1.67;;
14472;SDS011;7322;50.872;4.386;2024-01-07T22:47:02;2.03;;;1.53;;
14472;SDS011;7322;50.872;4.386;2024-01-07T22:49:31;2.90;;;1.50;;
14472;SDS011;7322;50.872;4.386;2024-01-07T22:51:58;1.83;;;1.60;;
14472;SDS011;7322;50.872;4.386;2024-01-07T22:54:27;2.40;;;1.63;;
14472;SDS011;7322;50.872;4.386;2024-01-07T22:56:57;2.23;;;1.57;;
14472;SDS011;7322;50.872;4.386;2024-01-07T22:59:24;2.07;;;1.70;;
14472;SDS011;7322;50.872;4.386;2024-01-07T23:01:51;1.63;;;1.47;;
14472;SDS011;7322;50.872;4.386;2024-01-07T23:04:18;2.73;;;1.50;;
14472;SDS011;7322;50.872;4.386;2024-01-07T23:06:47;1.87;;;1.43;;
14472;SDS011;7322;50.872;4.386;2024-01-07T23:09:15;2.00;;;1.50;;